sensor_id;sensor_type;location;lat;lon;timestamp;P1;durP1;ratioP1;P2;durP2;ratioP2
62880;SDS011;48969;49.934;8.596;2023-04-24T00:02:13;2.67;;;1.70;;
62880;SDS011;48969;49.934;8.596;2023-04-24T00:04:39;2.20;;;1.70;;
62880;SDS011;48969;49.934;8.596;2023-04-24T00:07:09;2.30;;;1.80;;
62880;SDS011;48969;49.934;8.596;2023-04-24T00:09:34;2.90;;;1.60;;
62880;SDS011;48969;49.934;8.596;2023-04-24T00:11:59;3.35;;;1.77;;
62880;SDS011;48969;49.934;8.596;2023-04-24T00:14:25;2.28;;;1.77;;
62880;SDS011;48969;49.934;8.596;2023-04-24T00:16:50;2.15;;;1.52;;
62880;SDS011;48969;49.934;8.596;2023-04-24T00:19:15;2.67;;;1.50;;
62880;SDS011;48969;49.934;8.596;2023-04-24T00:21:41;2.55;;;1.65;;
62880;SDS011;48969;49.934;8.596;2023-04-24T00:24:06;2.30;;;1.80;;
62880;SDS011;48969;49.934;8.596;2023-04-24T00:26:33;4.20;;;1.75;;
62880;SDS011;48969;49.934;8.596;2023-04-24T00:28:59;2.53;;;1.40;;
62880;SDS011;48969;49.934;8.596;2023-04-24T00:31:24;2.80;;;1.50;;
62880;SDS011;48969;49.934;8.596;2023-04-24T00:33:49;2.80;;;1.40;;
62880;SDS011;48969;49.934;8.596;2023-04-24T00:36:14;2.90;;;1.65;;
62880;SDS011;48969;49.934;8.596;2023-04-24T00:38:39;3.08;;;1.52;;
62880;SDS011;48969;49.934;8.596;2023-04-24T00:41:05;1.92;;;1.30;;
62880;SDS011;48969;49.934;8.596;2023-04-24T00:43:30;3.45;;;1.70;;
62880;SDS011;48969;49.934;8.596;2023-04-24T00:45:56;2.25;;;1.55;;
62880;SDS011;48969;49.934;8.596;2023-04-24T00:48:22;3.53;;;1.90;;
62880;SDS011;48969;49.934;8.596;2023-04-24T00:50:48;2.67;;;1.73;;
62880;SDS011;48969;49.934;8.596;2023-04-24T00:53:13;4.45;;;1.80;;
62880;SDS011;48969;49.934;8.596;2023-04-24T00:55:38;3.83;;;1.88;;
62880;SDS011;48969;49.934;8.596;2023-04-24T00:58:04;3.20;;;1.73;;
62880;SDS011;48969;49.934;8.596;2023-04-24T01:00:29;2.97;;;1.70;;
62880;SDS011;48969;49.934;8.596;2023-04-24T01:02:54;2.00;;;1.50;;
62880;SDS011;48969;49.934;8.596;2023-04-24T01:05:20;4.82;;;1.80;;
62880;SDS011;48969;49.934;8.596;2023-04-24T01:07:46;3.20;;;1.50;;
62880;SDS011;48969;49.934;8.596;2023-04-24T01:10:13;3.20;;;1.85;;
62880;SDS011;48969;49.934;8.596;2023-04-24T01:12:38;3.20;;;1.80;;
62880;SDS011;48969;49.934;8.596;2023-04-24T01:15:04;2.60;;;2.00;;
62880;SDS011;48969;49.934;8.596;2023-04-24T01:17:30;3.05;;;2.15;;
62880;SDS011;48969;49.934;8.596;2023-04-24T01:19:56;2.47;;;1.80;;
62880;SDS011;48969;49.934;8.596;2023-04-24T01:22:22;2.90;;;2.10;;
62880;SDS011;48969;49.934;8.596;2023-04-24T01:24:47;2.15;;;1.70;;
62880;SDS011;48969;49.934;8.596;2023-04-24T01:27:13;2.53;;;1.60;;
62880;SDS011;48969;49.934;8.596;2023-04-24T01:29:38;3.95;;;1.77;;
62880;SDS011;48969;49.934;8.596;2023-04-24T01:32:03;3.20;;;1.70;;
62880;SDS011;48969;49.934;8.596;2023-04-24T01:34:29;1.95;;;1.55;;
62880;SDS011;48969;49.934;8.596;2023-04-24T01:36:54;3.97;;;1.80;;
62880;SDS011;48969;49.934;8.596;2023-04-24T01:39:20;2.55;;;2.00;;
62880;SDS011;48969;49.934;8.596;2023-04-24T01:41:48;2.65;;;1.73;;
62880;SDS011;48969;49.934;8.596;2023-04-24T01:44:14;2.80;;;1.70;;
62880;SDS011;48969;49.934;8.596;2023-04-24T01:46:39;1.90;;;1.70;;
62880;SDS011;48969;49.934;8.596;2023-04-24T01:49:04;4.68;;;1.90;;
62880;SDS011;48969;49.934;8.596;2023-04-24T01:51:30;2.58;;;1.88;;
62880;SDS011;48969;49.934;8.596;2023-04-24T01:53:55;3.10;;;1.92;;
62880;SDS011;48969;49.934;8.596;2023-04-24T01:56:21;3.13;;;1.80;;
62880;SDS011;48969;49.934;8.596;2023-04-24T01:58:46;3.45;;;2.20;;
62880;SDS011;48969;49.934;8.596;2023-04-24T02:01:17;5.32;;;2.22;;
62880;SDS011;48969;49.934;8.596;2023-04-24T02:03:43;3.63;;;1.83;;
62880;SDS011;48969;49.934;8.596;2023-04-24T02:06:08;3.30;;;1.70;;
62880;SDS011;48969;49.934;8.596;2023-04-24T02:08:33;3.70;;;1.80;;
62880;SDS011;48969;49.934;8.596;2023-04-24T02:10:58;2.95;;;1.83;;
62880;SDS011;48969;49.934;8.596;2023-04-24T02:13:23;2.65;;;1.60;;
62880;SDS011;48969;49.934;8.596;2023-04-24T02:15:48;3.85;;;1.85;;
62880;SDS011;48969;49.934;8.596;2023-04-24T02:18:14;5.32;;;2.20;;
62880;SDS011;48969;49.934;8.596;2023-04-24T02:20:40;2.20;;;1.80;;
62880;SDS011;48969;49.934;8.596;2023-04-24T02:23:05;2.58;;;1.75;;
62880;SDS011;48969;49.934;8.596;2023-04-24T02:25:30;4.80;;;1.80;;
62880;SDS011;48969;49.934;8.596;2023-04-24T02:27:56;4.28;;;1.70;;
62880;SDS011;48969;49.934;8.596;2023-04-24T02:30:21;3.35;;;1.70;;
62880;SDS011;48969;49.934;8.596;2023-04-24T02:32:46;2.83;;;1.80;;
62880;SDS011;48969;49.934;8.596;2023-04-24T02:35:11;3.45;;;1.60;;
62880;SDS011;48969;49.934;8.596;2023-04-24T02:37:36;4.47;;;1.80;;
62880;SDS011;48969;49.934;8.596;2023-04-24T02:40:01;3.33;;;1.63;;
62880;SDS011;48969;49.934;8.596;2023-04-24T02:42:27;2.90;;;1.80;;
62880;SDS011;48969;49.934;8.596;2023-04-24T02:44:53;2.22;;;1.67;;
62880;SDS011;48969;49.934;8.596;2023-04-24T02:47:18;4.50;;;1.90;;
62880;SDS011;48969;49.934;8.596;2023-04-24T02:49:43;4.70;;;2.07;;
62880;SDS011;48969;49.934;8.596;2023-04-24T02:52:08;3.17;;;2.00;;
62880;SDS011;48969;49.934;8.596;2023-04-24T02:54:33;4.10;;;1.70;;
62880;SDS011;48969;49.934;8.596;2023-04-24T02:56:58;3.50;;;1.70;;
62880;SDS011;48969;49.934;8.596;2023-04-24T02:59:24;2.97;;;1.60;;
62880;SDS011;48969;49.934;8.596;2023-04-24T03:01:49;5.60;;;2.00;;
62880;SDS011;48969;49.934;8.596;2023-04-24T03:04:14;5.93;;;2.05;;
62880;SDS011;48969;49.934;8.596;2023-04-24T03:06:40;3.45;;;1.88;;
62880;SDS011;48969;49.934;8.596;2023-04-24T03:09:05;3.67;;;1.80;;
62880;SDS011;48969;49.934;8.596;2023-04-24T03:11:31;4.85;;;2.10;;
62880;SDS011;48969;49.934;8.596;2023-04-24T03:13:56;2.70;;;1.98;;
62880;SDS011;48969;49.934;8.596;2023-04-24T03:16:21;4.18;;;2.40;;
62880;SDS011;48969;49.934;8.596;2023-04-24T03:18:46;3.83;;;2.10;;
62880;SDS011;48969;49.934;8.596;2023-04-24T03:21:11;4.28;;;2.42;;
62880;SDS011;48969;49.934;8.596;2023-04-24T03:23:36;4.72;;;2.35;;
62880;SDS011;48969;49.934;8.596;2023-04-24T03:26:02;4.10;;;2.40;;
62880;SDS011;48969;49.934;8.596;2023-04-24T03:28:27;4.82;;;2.25;;
62880;SDS011;48969;49.934;8.596;2023-04-24T03:30:52;4.88;;;2.38;;
62880;SDS011;48969;49.934;8.596;2023-04-24T03:33:17;3.30;;;1.70;;
62880;SDS011;48969;49.934;8.596;2023-04-24T03:35:42;4.37;;;2.00;;
62880;SDS011;48969;49.934;8.596;2023-04-24T03:38:08;3.47;;;1.80;;
62880;SDS011;48969;49.934;8.596;2023-04-24T03:40:33;3.70;;;2.08;;
62880;SDS011;48969;49.934;8.596;2023-04-24T03:42:58;4.15;;;1.70;;
62880;SDS011;48969;49.934;8.596;2023-04-24T03:45:24;2.83;;;1.80;;
62880;SDS011;48969;49.934;8.596;2023-04-24T03:47:49;1.95;;;1.70;;
62880;SDS011;48969;49.934;8.596;2023-04-24T03:50:14;2.97;;;2.00;;
62880;SDS011;48969;49.934;8.596;2023-04-24T03:52:40;3.40;;;1.77;;
62880;SDS011;48969;49.934;8.596;2023-04-24T03:55:05;3.42;;;1.50;;
62880;SDS011;48969;49.934;8.596;2023-04-24T03:57:31;2.25;;;1.40;;
62880;SDS011;48969;49.934;8.596;2023-04-24T03:59:56;1.80;;;1.63;;
62880;SDS011;48969;49.934;8.596;2023-04-24T04:02:21;2.47;;;1.40;;
62880;SDS011;48969;49.934;8.596;2023-04-24T04:04:46;1.73;;;1.50;;
62880;SDS011;48969;49.934;8.596;2023-04-24T04:07:12;2.42;;;1.70;;
62880;SDS011;48969;49.934;8.596;2023-04-24T04:09:37;3.08;;;1.90;;
62880;SDS011;48969;49.934;8.596;2023-04-24T04:12:03;1.75;;;1.50;;
62880;SDS011;48969;49.934;8.596;2023-04-24T04:14:28;2.57;;;1.90;;
62880;SDS011;48969;49.934;8.596;2023-04-24T04:16:53;2.75;;;1.90;;
62880;SDS011;48969;49.934;8.596;2023-04-24T04:19:18;3.92;;;2.05;;
62880;SDS011;48969;49.934;8.596;2023-04-24T04:21:43;3.10;;;1.90;;
62880;SDS011;48969;49.934;8.596;2023-04-24T04:24:10;3.78;;;1.83;;
62880;SDS011;48969;49.934;8.596;2023-04-24T04:26:36;2.97;;;2.03;;
62880;SDS011;48969;49.934;8.596;2023-04-24T04:29:02;2.70;;;1.90;;
62880;SDS011;48969;49.934;8.596;2023-04-24T04:31:28;2.45;;;1.70;;
62880;SDS011;48969;49.934;8.596;2023-04-24T04:33:54;2.10;;;1.90;;
62880;SDS011;48969;49.934;8.596;2023-04-24T04:36:19;2.75;;;1.75;;
62880;SDS011;48969;49.934;8.596;2023-04-24T04:38:44;2.65;;;2.00;;
62880;SDS011;48969;49.934;8.596;2023-04-24T04:41:10;2.35;;;2.15;;
62880;SDS011;48969;49.934;8.596;2023-04-24T04:43:35;2.63;;;1.88;;
62880;SDS011;48969;49.934;8.596;2023-04-24T04:46:01;2.88;;;2.20;;
62880;SDS011;48969;49.934;8.596;2023-04-24T04:48:28;2.17;;;1.95;;
62880;SDS011;48969;49.934;8.596;2023-04-24T04:50:53;2.63;;;2.10;;
62880;SDS011;48969;49.934;8.596;2023-04-24T04:53:19;2.42;;;2.05;;
62880;SDS011;48969;49.934;8.596;2023-04-24T04:55:44;2.55;;;2.28;;
62880;SDS011;48969;49.934;8.596;2023-04-24T04:58:09;2.85;;;2.15;;
62880;SDS011;48969;49.934;8.596;2023-04-24T05:00:34;3.25;;;2.60;;
62880;SDS011;48969;49.934;8.596;2023-04-24T05:03:02;2.97;;;2.70;;
62880;SDS011;48969;49.934;8.596;2023-04-24T05:05:27;4.63;;;2.78;;
62880;SDS011;48969;49.934;8.596;2023-04-24T05:07:53;2.83;;;2.50;;
62880;SDS011;48969;49.934;8.596;2023-04-24T05:10:18;3.13;;;2.38;;
62880;SDS011;48969;49.934;8.596;2023-04-24T05:12:43;4.13;;;2.70;;
62880;SDS011;48969;49.934;8.596;2023-04-24T05:15:08;3.47;;;2.80;;
62880;SDS011;48969;49.934;8.596;2023-04-24T05:17:33;4.95;;;2.70;;
62880;SDS011;48969;49.934;8.596;2023-04-24T05:19:59;4.25;;;3.10;;
62880;SDS011;48969;49.934;8.596;2023-04-24T05:22:24;4.05;;;3.40;;
62880;SDS011;48969;49.934;8.596;2023-04-24T05:24:49;3.20;;;2.90;;
62880;SDS011;48969;49.934;8.596;2023-04-24T05:27:14;4.40;;;2.97;;
62880;SDS011;48969;49.934;8.596;2023-04-24T05:29:40;4.03;;;2.90;;
62880;SDS011;48969;49.934;8.596;2023-04-24T05:32:05;3.38;;;3.08;;
62880;SDS011;48969;49.934;8.596;2023-04-24T05:34:30;3.90;;;3.28;;
62880;SDS011;48969;49.934;8.596;2023-04-24T05:36:56;4.30;;;3.20;;
62880;SDS011;48969;49.934;8.596;2023-04-24T05:39:21;3.30;;;3.00;;
62880;SDS011;48969;49.934;8.596;2023-04-24T05:41:46;3.85;;;3.10;;
62880;SDS011;48969;49.934;8.596;2023-04-24T05:44:11;3.42;;;3.03;;
62880;SDS011;48969;49.934;8.596;2023-04-24T05:46:36;3.38;;;3.03;;
62880;SDS011;48969;49.934;8.596;2023-04-24T05:49:02;3.88;;;2.83;;
62880;SDS011;48969;49.934;8.596;2023-04-24T05:51:27;3.50;;;2.60;;
62880;SDS011;48969;49.934;8.596;2023-04-24T05:53:53;3.08;;;2.78;;
62880;SDS011;48969;49.934;8.596;2023-04-24T05:56:18;4.45;;;2.70;;
62880;SDS011;48969;49.934;8.596;2023-04-24T05:58:43;3.45;;;2.83;;
62880;SDS011;48969;49.934;8.596;2023-04-24T06:01:08;4.72;;;3.17;;
62880;SDS011;48969;49.934;8.596;2023-04-24T06:03:34;3.88;;;3.47;;
62880;SDS011;48969;49.934;8.596;2023-04-24T06:05:59;4.13;;;3.70;;
62880;SDS011;48969;49.934;8.596;2023-04-24T06:08:24;4.33;;;3.93;;
62880;SDS011;48969;49.934;8.596;2023-04-24T06:10:50;5.53;;;4.20;;
62880;SDS011;48969;49.934;8.596;2023-04-24T06:13:16;4.85;;;4.20;;
62880;SDS011;48969;49.934;8.596;2023-04-24T06:15:41;5.15;;;4.50;;
62880;SDS011;48969;49.934;8.596;2023-04-24T06:18:06;7.03;;;4.93;;
62880;SDS011;48969;49.934;8.596;2023-04-24T06:20:32;6.13;;;4.65;;
62880;SDS011;48969;49.934;8.596;2023-04-24T06:22:57;5.93;;;4.90;;
62880;SDS011;48969;49.934;8.596;2023-04-24T06:25:24;5.05;;;4.55;;
62880;SDS011;48969;49.934;8.596;2023-04-24T06:27:49;7.43;;;4.78;;
62880;SDS011;48969;49.934;8.596;2023-04-24T06:30:14;6.07;;;4.93;;
62880;SDS011;48969;49.934;8.596;2023-04-24T06:32:40;5.20;;;4.70;;
62880;SDS011;48969;49.934;8.596;2023-04-24T06:35:05;6.32;;;4.70;;
62880;SDS011;48969;49.934;8.596;2023-04-24T06:37:32;5.40;;;4.78;;
62880;SDS011;48969;49.934;8.596;2023-04-24T06:39:59;5.93;;;5.07;;
62880;SDS011;48969;49.934;8.596;2023-04-24T06:42:24;6.05;;;5.20;;
62880;SDS011;48969;49.934;8.596;2023-04-24T06:44:50;5.78;;;4.93;;
62880;SDS011;48969;49.934;8.596;2023-04-24T06:47:15;5.93;;;4.50;;
62880;SDS011;48969;49.934;8.596;2023-04-24T06:49:40;6.20;;;4.90;;
62880;SDS011;48969;49.934;8.596;2023-04-24T06:52:06;5.63;;;5.03;;
62880;SDS011;48969;49.934;8.596;2023-04-24T06:54:31;6.28;;;5.55;;
62880;SDS011;48969;49.934;8.596;2023-04-24T06:56:57;6.90;;;5.25;;
62880;SDS011;48969;49.934;8.596;2023-04-24T06:59:23;5.80;;;5.20;;
62880;SDS011;48969;49.934;8.596;2023-04-24T07:01:48;5.82;;;5.05;;
62880;SDS011;48969;49.934;8.596;2023-04-24T07:04:14;7.53;;;5.88;;
62880;SDS011;48969;49.934;8.596;2023-04-24T07:06:39;6.72;;;6.00;;
62880;SDS011;48969;49.934;8.596;2023-04-24T07:09:04;6.88;;;5.00;;
62880;SDS011;48969;49.934;8.596;2023-04-24T07:11:29;6.70;;;5.25;;
62880;SDS011;48969;49.934;8.596;2023-04-24T07:13:55;6.55;;;5.55;;
62880;SDS011;48969;49.934;8.596;2023-04-24T07:16:20;6.80;;;5.22;;
62880;SDS011;48969;49.934;8.596;2023-04-24T07:18:46;7.93;;;5.32;;
62880;SDS011;48969;49.934;8.596;2023-04-24T07:21:11;5.82;;;4.95;;
62880;SDS011;48969;49.934;8.596;2023-04-24T07:23:36;5.90;;;5.32;;
62880;SDS011;48969;49.934;8.596;2023-04-24T07:26:01;6.50;;;5.72;;
62880;SDS011;48969;49.934;8.596;2023-04-24T07:28:27;7.28;;;5.55;;
62880;SDS011;48969;49.934;8.596;2023-04-24T07:30:55;6.35;;;4.68;;
62880;SDS011;48969;49.934;8.596;2023-04-24T07:33:21;6.60;;;3.83;;
62880;SDS011;48969;49.934;8.596;2023-04-24T07:35:46;5.93;;;3.70;;
62880;SDS011;48969;49.934;8.596;2023-04-24T07:38:11;4.47;;;3.50;;
62880;SDS011;48969;49.934;8.596;2023-04-24T07:40:36;3.90;;;2.97;;
62880;SDS011;48969;49.934;8.596;2023-04-24T07:43:01;3.28;;;2.97;;
62880;SDS011;48969;49.934;8.596;2023-04-24T07:45:27;5.43;;;3.63;;
62880;SDS011;48969;49.934;8.596;2023-04-24T07:47:53;3.20;;;2.88;;
62880;SDS011;48969;49.934;8.596;2023-04-24T07:50:18;3.73;;;2.77;;
62880;SDS011;48969;49.934;8.596;2023-04-24T07:52:43;4.40;;;2.97;;
62880;SDS011;48969;49.934;8.596;2023-04-24T07:55:08;3.47;;;2.67;;
62880;SDS011;48969;49.934;8.596;2023-04-24T07:57:34;5.45;;;3.08;;
62880;SDS011;48969;49.934;8.596;2023-04-24T07:59:59;4.10;;;2.72;;
62880;SDS011;48969;49.934;8.596;2023-04-24T08:02:24;4.03;;;2.95;;
62880;SDS011;48969;49.934;8.596;2023-04-24T08:04:54;3.60;;;2.22;;
62880;SDS011;48969;49.934;8.596;2023-04-24T08:07:20;3.03;;;2.60;;
62880;SDS011;48969;49.934;8.596;2023-04-24T08:09:45;4.72;;;2.80;;
62880;SDS011;48969;49.934;8.596;2023-04-24T08:12:10;4.00;;;3.13;;
62880;SDS011;48969;49.934;8.596;2023-04-24T08:14:36;5.57;;;2.70;;
62880;SDS011;48969;49.934;8.596;2023-04-24T08:17:01;6.50;;;2.90;;
62880;SDS011;48969;49.934;8.596;2023-04-24T08:19:27;3.55;;;2.90;;
62880;SDS011;48969;49.934;8.596;2023-04-24T08:21:52;3.10;;;2.80;;
62880;SDS011;48969;49.934;8.596;2023-04-24T08:24:18;4.57;;;2.72;;
62880;SDS011;48969;49.934;8.596;2023-04-24T08:26:43;3.40;;;2.72;;
62880;SDS011;48969;49.934;8.596;2023-04-24T08:29:08;3.17;;;2.90;;
62880;SDS011;48969;49.934;8.596;2023-04-24T08:31:33;6.50;;;3.20;;
62880;SDS011;48969;49.934;8.596;2023-04-24T08:33:58;3.35;;;2.80;;
62880;SDS011;48969;49.934;8.596;2023-04-24T08:36:25;3.40;;;3.08;;
62880;SDS011;48969;49.934;8.596;2023-04-24T08:38:50;3.92;;;2.97;;
62880;SDS011;48969;49.934;8.596;2023-04-24T08:41:16;4.90;;;3.10;;
62880;SDS011;48969;49.934;8.596;2023-04-24T08:43:42;3.40;;;3.10;;
62880;SDS011;48969;49.934;8.596;2023-04-24T08:46:08;3.58;;;3.00;;
62880;SDS011;48969;49.934;8.596;2023-04-24T08:48:35;3.38;;;3.08;;
62880;SDS011;48969;49.934;8.596;2023-04-24T08:51:00;3.33;;;2.72;;
62880;SDS011;48969;49.934;8.596;2023-04-24T08:53:27;3.50;;;2.90;;
62880;SDS011;48969;49.934;8.596;2023-04-24T08:55:53;3.35;;;2.97;;
62880;SDS011;48969;49.934;8.596;2023-04-24T08:58:18;3.90;;;3.17;;
62880;SDS011;48969;49.934;8.596;2023-04-24T09:00:44;4.20;;;3.30;;
62880;SDS011;48969;49.934;8.596;2023-04-24T09:03:13;3.58;;;2.95;;
62880;SDS011;48969;49.934;8.596;2023-04-24T09:05:39;4.43;;;3.45;;
62880;SDS011;48969;49.934;8.596;2023-04-24T09:08:05;3.83;;;3.00;;
62880;SDS011;48969;49.934;8.596;2023-04-24T09:10:31;3.33;;;2.88;;
62880;SDS011;48969;49.934;8.596;2023-04-24T09:12:59;3.92;;;2.55;;
62880;SDS011;48969;49.934;8.596;2023-04-24T09:15:26;6.88;;;2.80;;
62880;SDS011;48969;49.934;8.596;2023-04-24T09:17:52;3.00;;;2.80;;
62880;SDS011;48969;49.934;8.596;2023-04-24T09:20:17;4.07;;;3.05;;
62880;SDS011;48969;49.934;8.596;2023-04-24T09:22:42;3.15;;;2.80;;
62880;SDS011;48969;49.934;8.596;2023-04-24T09:25:09;4.03;;;3.00;;
62880;SDS011;48969;49.934;8.596;2023-04-24T09:27:37;2.83;;;2.45;;
62880;SDS011;48969;49.934;8.596;2023-04-24T09:30:06;3.20;;;2.80;;
62880;SDS011;48969;49.934;8.596;2023-04-24T09:32:32;3.15;;;2.85;;
62880;SDS011;48969;49.934;8.596;2023-04-24T09:35:13;3.15;;;2.42;;
62880;SDS011;48969;49.934;8.596;2023-04-24T09:37:40;3.22;;;2.50;;
62880;SDS011;48969;49.934;8.596;2023-04-24T09:40:10;4.15;;;2.83;;
62880;SDS011;48969;49.934;8.596;2023-04-24T09:42:39;2.72;;;2.50;;
62880;SDS011;48969;49.934;8.596;2023-04-24T09:45:08;2.67;;;2.47;;
62880;SDS011;48969;49.934;8.596;2023-04-24T09:47:40;2.95;;;2.45;;
62880;SDS011;48969;49.934;8.596;2023-04-24T09:50:09;3.35;;;2.20;;
62880;SDS011;48969;49.934;8.596;2023-04-24T09:52:34;2.22;;;2.00;;
62880;SDS011;48969;49.934;8.596;2023-04-24T09:55:00;3.78;;;2.08;;
62880;SDS011;48969;49.934;8.596;2023-04-24T09:57:25;3.13;;;2.40;;
62880;SDS011;48969;49.934;8.596;2023-04-24T09:59:50;2.42;;;2.20;;
62880;SDS011;48969;49.934;8.596;2023-04-24T10:02:18;3.13;;;2.00;;
62880;SDS011;48969;49.934;8.596;2023-04-24T10:04:53;3.05;;;1.67;;
62880;SDS011;48969;49.934;8.596;2023-04-24T10:07:19;2.33;;;2.13;;
62880;SDS011;48969;49.934;8.596;2023-04-24T10:09:44;3.17;;;2.10;;
62880;SDS011;48969;49.934;8.596;2023-04-24T10:12:09;2.08;;;1.88;;
62880;SDS011;48969;49.934;8.596;2023-04-24T10:14:35;3.92;;;2.33;;
62880;SDS011;48969;49.934;8.596;2023-04-24T10:17:01;2.30;;;2.10;;
62880;SDS011;48969;49.934;8.596;2023-04-24T10:19:26;8.90;;;2.20;;
62880;SDS011;48969;49.934;8.596;2023-04-24T10:21:51;5.40;;;2.33;;
62880;SDS011;48969;49.934;8.596;2023-04-24T10:24:17;2.50;;;2.30;;
62880;SDS011;48969;49.934;8.596;2023-04-24T10:26:43;2.50;;;2.30;;
62880;SDS011;48969;49.934;8.596;2023-04-24T10:29:10;4.38;;;2.50;;
62880;SDS011;48969;49.934;8.596;2023-04-24T10:31:36;2.92;;;2.30;;
62880;SDS011;48969;49.934;8.596;2023-04-24T10:34:03;2.97;;;2.15;;
62880;SDS011;48969;49.934;8.596;2023-04-24T10:36:29;3.35;;;2.58;;
62880;SDS011;48969;49.934;8.596;2023-04-24T10:38:57;2.97;;;2.60;;
62880;SDS011;48969;49.934;8.596;2023-04-24T10:41:24;4.32;;;3.00;;
62880;SDS011;48969;49.934;8.596;2023-04-24T10:46:38;3.50;;;2.92;;
62880;SDS011;48969;49.934;8.596;2023-04-24T10:49:07;4.80;;;3.25;;
62880;SDS011;48969;49.934;8.596;2023-04-24T10:54:55;2.70;;;2.50;;
62880;SDS011;48969;49.934;8.596;2023-04-24T10:59:45;3.25;;;2.38;;
62880;SDS011;48969;49.934;8.596;2023-04-24T11:02:10;3.83;;;2.50;;
62880;SDS011;48969;49.934;8.596;2023-04-24T11:04:35;4.03;;;3.13;;
62880;SDS011;48969;49.934;8.596;2023-04-24T11:07:02;3.75;;;2.92;;
62880;SDS011;48969;49.934;8.596;2023-04-24T11:09:27;3.85;;;3.55;;
62880;SDS011;48969;49.934;8.596;2023-04-24T11:12:02;5.72;;;4.07;;
62880;SDS011;48969;49.934;8.596;2023-04-24T11:14:27;4.72;;;3.80;;
62880;SDS011;48969;49.934;8.596;2023-04-24T11:16:53;5.13;;;3.65;;
62880;SDS011;48969;49.934;8.596;2023-04-24T11:21:54;4.60;;;4.07;;
62880;SDS011;48969;49.934;8.596;2023-04-24T11:24:29;4.47;;;3.50;;
62880;SDS011;48969;49.934;8.596;2023-04-24T11:27:04;4.25;;;3.70;;
62880;SDS011;48969;49.934;8.596;2023-04-24T11:29:43;3.35;;;2.78;;
62880;SDS011;48969;49.934;8.596;2023-04-24T11:34:50;3.70;;;3.03;;
62880;SDS011;48969;49.934;8.596;2023-04-24T11:37:16;2.55;;;2.30;;
62880;SDS011;48969;49.934;8.596;2023-04-24T11:39:41;3.03;;;2.70;;
62880;SDS011;48969;49.934;8.596;2023-04-24T11:42:12;2.80;;;2.35;;
62880;SDS011;48969;49.934;8.596;2023-04-24T11:44:39;2.95;;;2.58;;
62880;SDS011;48969;49.934;8.596;2023-04-24T11:47:05;2.55;;;2.35;;
62880;SDS011;48969;49.934;8.596;2023-04-24T11:49:30;2.22;;;2.03;;
62880;SDS011;48969;49.934;8.596;2023-04-24T11:51:55;1.90;;;1.80;;
62880;SDS011;48969;49.934;8.596;2023-04-24T11:54:21;1.88;;;1.75;;
62880;SDS011;48969;49.934;8.596;2023-04-24T11:56:46;2.85;;;2.08;;
62880;SDS011;48969;49.934;8.596;2023-04-24T11:59:12;2.65;;;2.28;;
62880;SDS011;48969;49.934;8.596;2023-04-24T12:01:43;2.60;;;2.40;;
62880;SDS011;48969;49.934;8.596;2023-04-24T12:04:09;4.07;;;2.40;;
62880;SDS011;48969;49.934;8.596;2023-04-24T12:06:35;3.45;;;2.42;;
62880;SDS011;48969;49.934;8.596;2023-04-24T12:09:00;2.33;;;2.13;;
62880;SDS011;48969;49.934;8.596;2023-04-24T12:11:26;2.30;;;2.15;;
62880;SDS011;48969;49.934;8.596;2023-04-24T12:13:51;2.55;;;2.05;;
62880;SDS011;48969;49.934;8.596;2023-04-24T12:16:16;3.13;;;2.20;;
62880;SDS011;48969;49.934;8.596;2023-04-24T12:18:42;3.05;;;2.75;;
62880;SDS011;48969;49.934;8.596;2023-04-24T12:21:20;2.67;;;2.47;;
62880;SDS011;48969;49.934;8.596;2023-04-24T12:23:46;2.97;;;2.67;;
62880;SDS011;48969;49.934;8.596;2023-04-24T12:26:12;3.63;;;3.20;;
62880;SDS011;48969;49.934;8.596;2023-04-24T12:28:40;3.92;;;3.50;;
62880;SDS011;48969;49.934;8.596;2023-04-24T12:31:05;4.13;;;3.40;;
62880;SDS011;48969;49.934;8.596;2023-04-24T12:33:34;4.72;;;3.95;;
62880;SDS011;48969;49.934;8.596;2023-04-24T12:36:00;4.93;;;3.63;;
62880;SDS011;48969;49.934;8.596;2023-04-24T12:38:26;4.50;;;3.70;;
62880;SDS011;48969;49.934;8.596;2023-04-24T12:41:04;3.95;;;3.53;;
62880;SDS011;48969;49.934;8.596;2023-04-24T12:43:29;3.78;;;3.40;;
62880;SDS011;48969;49.934;8.596;2023-04-24T12:45:55;3.50;;;3.20;;
62880;SDS011;48969;49.934;8.596;2023-04-24T12:48:20;4.13;;;3.05;;
62880;SDS011;48969;49.934;8.596;2023-04-24T12:50:46;4.03;;;3.40;;
62880;SDS011;48969;49.934;8.596;2023-04-24T12:53:11;5.90;;;3.70;;
62880;SDS011;48969;49.934;8.596;2023-04-24T12:55:36;6.38;;;4.00;;
62880;SDS011;48969;49.934;8.596;2023-04-24T12:58:02;5.05;;;4.10;;
62880;SDS011;48969;49.934;8.596;2023-04-24T13:00:27;4.75;;;3.03;;
62880;SDS011;48969;49.934;8.596;2023-04-24T13:02:53;4.32;;;3.92;;
62880;SDS011;48969;49.934;8.596;2023-04-24T13:05:18;4.00;;;3.60;;
62880;SDS011;48969;49.934;8.596;2023-04-24T13:07:43;4.20;;;3.80;;
62880;SDS011;48969;49.934;8.596;2023-04-24T13:10:08;5.68;;;4.50;;
62880;SDS011;48969;49.934;8.596;2023-04-24T13:12:34;5.45;;;4.20;;
62880;SDS011;48969;49.934;8.596;2023-04-24T13:14:59;5.82;;;3.58;;
62880;SDS011;48969;49.934;8.596;2023-04-24T13:17:25;6.57;;;4.35;;
62880;SDS011;48969;49.934;8.596;2023-04-24T13:19:50;6.57;;;4.38;;
62880;SDS011;48969;49.934;8.596;2023-04-24T13:22:16;6.60;;;4.63;;
62880;SDS011;48969;49.934;8.596;2023-04-24T13:24:43;5.95;;;4.20;;
62880;SDS011;48969;49.934;8.596;2023-04-24T13:27:08;4.95;;;3.78;;
62880;SDS011;48969;49.934;8.596;2023-04-24T13:29:34;5.50;;;4.20;;
62880;SDS011;48969;49.934;8.596;2023-04-24T13:31:59;5.63;;;3.73;;
62880;SDS011;48969;49.934;8.596;2023-04-24T13:34:25;4.97;;;3.58;;
62880;SDS011;48969;49.934;8.596;2023-04-24T13:36:52;6.88;;;3.72;;
62880;SDS011;48969;49.934;8.596;2023-04-24T13:39:17;5.45;;;3.90;;
62880;SDS011;48969;49.934;8.596;2023-04-24T13:41:42;4.65;;;3.65;;
62880;SDS011;48969;49.934;8.596;2023-04-24T13:44:07;4.30;;;3.65;;
62880;SDS011;48969;49.934;8.596;2023-04-24T13:46:33;3.95;;;3.40;;
62880;SDS011;48969;49.934;8.596;2023-04-24T13:48:58;7.15;;;4.10;;
62880;SDS011;48969;49.934;8.596;2023-04-24T13:51:24;4.63;;;3.85;;
62880;SDS011;48969;49.934;8.596;2023-04-24T13:53:51;4.72;;;3.58;;
62880;SDS011;48969;49.934;8.596;2023-04-24T13:56:16;5.65;;;3.75;;
62880;SDS011;48969;49.934;8.596;2023-04-24T13:58:42;5.57;;;3.88;;
62880;SDS011;48969;49.934;8.596;2023-04-24T14:01:07;6.07;;;4.05;;
62880;SDS011;48969;49.934;8.596;2023-04-24T14:03:33;5.43;;;3.90;;
62880;SDS011;48969;49.934;8.596;2023-04-24T14:05:58;5.40;;;4.30;;
62880;SDS011;48969;49.934;8.596;2023-04-24T14:08:23;4.63;;;4.00;;
62880;SDS011;48969;49.934;8.596;2023-04-24T14:10:49;5.95;;;4.45;;
62880;SDS011;48969;49.934;8.596;2023-04-24T14:13:15;5.25;;;4.20;;
62880;SDS011;48969;49.934;8.596;2023-04-24T14:15:40;6.30;;;4.10;;
62880;SDS011;48969;49.934;8.596;2023-04-24T14:18:05;5.55;;;3.85;;
62880;SDS011;48969;49.934;8.596;2023-04-24T14:20:31;3.58;;;3.20;;
62880;SDS011;48969;49.934;8.596;2023-04-24T14:22:56;8.02;;;4.35;;
62880;SDS011;48969;49.934;8.596;2023-04-24T14:25:24;4.07;;;3.38;;
62880;SDS011;48969;49.934;8.596;2023-04-24T14:27:49;5.07;;;3.40;;
62880;SDS011;48969;49.934;8.596;2023-04-24T14:30:14;4.65;;;3.58;;
62880;SDS011;48969;49.934;8.596;2023-04-24T14:32:40;5.00;;;4.07;;
62880;SDS011;48969;49.934;8.596;2023-04-24T14:35:06;3.90;;;3.40;;
62880;SDS011;48969;49.934;8.596;2023-04-24T14:37:31;5.60;;;4.00;;
62880;SDS011;48969;49.934;8.596;2023-04-24T14:39:57;5.68;;;3.83;;
62880;SDS011;48969;49.934;8.596;2023-04-24T14:42:22;4.88;;;3.83;;
62880;SDS011;48969;49.934;8.596;2023-04-24T14:44:47;9.15;;;4.47;;
62880;SDS011;48969;49.934;8.596;2023-04-24T14:47:12;5.30;;;3.55;;
62880;SDS011;48969;49.934;8.596;2023-04-24T14:49:37;4.97;;;3.88;;
62880;SDS011;48969;49.934;8.596;2023-04-24T14:52:03;5.73;;;3.80;;
62880;SDS011;48969;49.934;8.596;2023-04-24T14:54:28;5.78;;;3.88;;